Time;durP1;ratioP1;P1;durP2;ratioP2;P2;SDS_P1;SDS_P2;PMS_P1;PMS_P2;Temp;Humidity;BMP_temperature;BMP_pressure;BME280_temperature;BME280_humidity;BME280_pressure;Samples;Min_cycle;Max_cycle;Signal;HPM_P1;HPM_P2
2023/01/28 00:01:29;;;;;;;5.28;2.92;;;2.10;99.90;;;;;;5035124;28;20067;-67
2023/01/28 00:03:55;;;;;;;3.70;3.05;;;;;;;;;;5034218;28;20041;-68
2023/01/28 00:06:20;;;;;;;3.70;2.95;;;2.10;99.90;;;;;;5034969;28;20497;-68
2023/01/28 00:08:47;;;;;;;5.22;3.30;;;2.10;99.90;;;;;;5034854;28;20111;-67
2023/01/28 00:11:13;;;;;;;3.92;2.83;;;2.10;99.90;;;;;;5034383;28;20033;-67
2023/01/28 00:13:39;;;;;;;6.00;3.58;;;2.10;99.90;;;;;;5034553;28;20045;-67
2023/01/28 00:16:07;;;;;;;4.78;3.35;;;2.40;99.90;;;;;;5034737;28;20041;-67
2023/01/28 00:18:33;;;;;;;5.15;2.97;;;2.20;99.90;;;;;;5034384;28;20516;-68
2023/01/28 00:21:08;;;;;;;5.18;2.88;;;2.10;99.90;;;;;;5016633;28;20079;-67
2023/01/28 00:23:36;;;;;;;4.18;2.63;;;2.50;99.90;;;;;;5034286;28;20033;-67
2023/01/28 00:26:04;;;;;;;4.55;2.88;;;;;;;;;;5034519;28;20053;-68
2023/01/28 00:28:30;;;;;;;4.32;3.22;;;2.10;99.90;;;;;;5034524;28;20405;-67
2023/01/28 00:30:56;;;;;;;4.93;3.13;;;2.10;99.90;;;;;;5034450;28;20067;-67
2023/01/28 00:33:21;;;;;;;4.28;2.95;;;2.10;99.90;;;;;;5034264;28;20527;-67
2023/01/28 00:35:47;;;;;;;5.43;2.80;;;2.10;99.90;;;;;;5034409;28;20033;-67
2023/01/28 00:38:13;;;;;;;5.00;3.20;;;2.10;99.90;;;;;;5034398;28;20103;-67
2023/01/28 00:40:39;;;;;;;4.60;3.00;;;2.10;99.90;;;;;;5016322;28;20033;-67
2023/01/28 00:43:04;;;;;;;4.93;3.35;;;2.10;99.90;;;;;;5034272;28;20037;-67
2023/01/28 00:45:30;;;;;;;4.38;2.88;;;2.10;99.90;;;;;;5034204;28;20124;-67
2023/01/28 00:47:55;;;;;;;4.75;3.42;;;2.10;99.90;;;;;;5033863;28;20048;-68
2023/01/28 00:50:21;;;;;;;5.57;3.40;;;2.10;99.90;;;;;;5016062;28;20077;-68
2023/01/28 00:52:47;;;;;;;4.93;3.28;;;2.10;99.90;;;;;;5034073;28;20552;-68
2023/01/28 00:55:13;;;;;;;3.92;2.60;;;2.10;99.90;;;;;;5033971;28;20039;-67
2023/01/28 00:57:39;;;;;;;5.78;3.42;;;2.10;99.90;;;;;;5033913;28;20026;-67
2023/01/28 01:00:06;;;;;;;4.60;2.88;;;2.10;99.90;;;;;;5033925;28;20038;-68
2023/01/28 01:02:32;;;;;;;5.10;3.25;;;2.10;99.90;;;;;;5033886;28;20125;-67
2023/01/28 01:04:57;;;;;;;7.15;2.50;;;2.10;99.90;;;;;;5033834;28;20503;-67
2023/01/28 01:07:31;;;;;;;7.32;2.95;;;2.10;99.90;;;;;;5033542;28;20121;-67
2023/01/28 01:10:03;;;;;;;5.07;3.38;;;2.10;99.90;;;;;;4999363;28;20460;-67
2023/01/28 01:12:29;;;;;;;4.47;3.00;;;2.10;99.90;;;;;;5033283;28;20064;-67
2023/01/28 01:14:56;;;;;;;4.72;2.90;;;2.10;99.90;;;;;;5033601;28;20037;-67
2023/01/28 01:17:21;;;;;;;4.47;3.40;;;2.10;99.90;;;;;;5033646;28;20098;-67
2023/01/28 01:19:47;;;;;;;5.80;3.40;;;2.10;99.90;;;;;;4999339;28;20127;-67
2023/01/28 01:22:13;;;;;;;4.65;3.45;;;2.10;99.90;;;;;;5033237;28;20400;-67
2023/01/28 01:24:38;;;;;;;4.70;3.25;;;2.10;99.90;;;;;;5033530;28;20077;-67
2023/01/28 01:27:04;;;;;;;6.93;2.63;;;2.10;99.90;;;;;;5015599;28;20443;-67
2023/01/28 01:29:32;;;;;;;4.22;3.20;;;2.10;99.90;;;;;;5033377;28;20076;-67
2023/01/28 01:31:58;;;;;;;4.40;2.83;;;2.10;99.90;;;;;;5033090;28;20038;-66
2023/01/28 01:34:24;;;;;;;4.72;2.75;;;2.10;99.90;;;;;;5033351;28;20037;-67
2023/01/28 01:36:49;;;;;;;5.40;3.38;;;2.10;99.90;;;;;;5015375;28;20503;-67
2023/01/28 01:39:15;;;;;;;6.70;2.85;;;2.10;99.90;;;;;;5032946;28;20535;-67
2023/01/28 01:41:41;;;;;;;5.60;3.42;;;2.10;99.90;;;;;;5032992;28;20037;-67
2023/01/28 01:44:50;;;;;;;7.20;3.45;;;2.10;99.90;;;;;;5033115;28;20045;-67
2023/01/28 01:47:17;;;;;;;5.18;3.13;;;2.10;99.90;;;;;;5033143;28;20128;-67
2023/01/28 01:49:43;;;;;;;5.88;3.30;;;2.10;99.90;;;;;;5033087;28;20049;-67
2023/01/28 01:52:16;;;;;;;6.43;4.03;;;2.10;99.90;;;;;;5033012;28;20171;-68
2023/01/28 01:54:48;;;;;;;6.68;3.40;;;2.10;99.90;;;;;;5015101;28;20077;-67
2023/01/28 01:57:19;;;;;;;7.65;3.17;;;2.10;99.90;;;;;;5033099;28;20038;-67
2023/01/28 01:59:45;;;;;;;6.70;3.38;;;2.10;99.90;;;;;;5033002;28;20041;-67
2023/01/28 02:02:11;;;;;;;5.63;2.85;;;2.10;99.90;;;;;;5032933;28;20183;-67
2023/01/28 02:04:46;;;;;;;8.27;3.60;;;2.10;99.90;;;;;;5033009;28;20037;-67
2023/01/28 02:07:14;;;;;;;7.35;3.90;;;2.10;99.90;;;;;;5032876;28;20041;-67
2023/01/28 02:09:40;;;;;;;5.82;3.20;;;2.10;99.90;;;;;;5032668;28;20075;-67
2023/01/28 02:12:17;;;;;;;5.57;4.07;;;2.10;99.90;;;;;;5032516;28;20053;-67
2023/01/28 02:14:47;;;;;;;5.32;3.10;;;2.10;99.90;;;;;;5032568;28;20038;-67
2023/01/28 02:17:13;;;;;;;6.88;3.38;;;2.10;99.90;;;;;;5032826;28;20132;-67
2023/01/28 02:19:52;;;;;;;6.93;3.78;;;2.40;99.90;;;;;;5032901;28;20065;-67
2023/01/28 02:22:38;;;;;;;5.95;3.38;;;2.10;99.90;;;;;;5032801;28;20049;-67
2023/01/28 02:25:10;;;;;;;4.15;2.85;;;2.10;99.90;;;;;;5032830;28;20056;-67
2023/01/28 02:27:57;;;;;;;6.22;3.30;;;2.10;99.90;;;;;;5036539;28;20426;-68
2023/01/28 02:30:35;;;;;;;7.05;2.83;;;2.10;99.90;;;;;;5036747;28;20377;-67
2023/01/28 02:33:08;;;;;;;6.68;3.42;;;2.10;99.90;;;;;;5036720;28;20037;-67
2023/01/28 02:35:45;;;;;;;5.82;3.05;;;2.10;99.90;;;;;;5036724;28;20033;-66
2023/01/28 02:38:20;;;;;;;5.60;3.22;;;2.10;99.90;;;;;;5002247;28;20045;-67
2023/01/28 02:41:05;;;;;;;6.72;3.17;;;2.10;99.90;;;;;;5036626;28;20112;-67
2023/01/28 02:43:31;;;;;;;4.35;2.35;;;2.10;99.90;;;;;;5036252;28;20112;-67
2023/01/28 02:48:43;;;;;;;6.13;3.58;;;2.10;99.90;;;;;;5036496;28;20388;-67
2023/01/28 02:51:28;;;;;;;8.48;3.10;;;2.10;99.90;;;;;;5036003;28;20042;-67
2023/01/28 02:54:07;;;;;;;5.25;2.78;;;2.10;99.90;;;;;;5036218;28;20108;-67
2023/01/28 02:56:51;;;;;;;3.92;2.45;;;2.10;99.90;;;;;;5036320;28;20426;-68
2023/01/28 02:59:35;;;;;;;8.15;3.33;;;2.00;99.90;;;;;;5018469;28;20049;-67
2023/01/28 03:02:10;;;;;;;6.00;3.05;;;2.00;99.90;;;;;;5036442;28;20053;-65
2023/01/28 03:05:01;;;;;;;4.18;2.70;;;2.00;99.90;;;;;;5075352;22;20049;-62
2023/01/28 03:07:31;;;;;;;3.28;2.08;;;2.00;99.90;;;;;;5075962;28;20144;-62
2023/01/28 03:10:03;;;;;;;4.82;2.40;;;2.00;99.90;;;;;;5076080;28;20047;-62
2023/01/28 03:38:00;;;;;;;4.65;2.53;;;2.00;99.90;;;;;;5074297;28;20123;-64
2023/01/28 03:40:27;;;;;;;5.55;2.30;;;2.00;99.90;;;;;;5075589;28;20049;-62
2023/01/28 03:42:53;;;;;;;3.65;2.15;;;2.00;99.90;;;;;;5075577;28;20048;-61
2023/01/28 03:45:20;;;;;;;4.57;2.35;;;2.00;99.90;;;;;;5075489;28;20571;-62
2023/01/28 03:47:45;;;;;;;3.88;2.22;;;2.00;99.90;;;;;;5075462;28;20036;-62
2023/01/28 03:50:11;;;;;;;3.80;2.40;;;2.00;99.90;;;;;;5075352;28;20055;-63
2023/01/28 03:52:37;;;;;;;4.00;2.60;;;2.00;99.90;;;;;;5075345;28;20079;-62
2023/01/28 03:55:12;;;;;;;2.92;2.00;;;2.00;99.90;;;;;;5075310;28;20392;-62
2023/01/28 03:57:38;;;;;;;4.18;2.15;;;2.00;99.90;;;;;;5075299;28;20527;-62
2023/01/28 04:00:04;;;;;;;5.18;2.60;;;2.00;99.90;;;;;;5075229;28;20446;-62
2023/01/28 04:02:30;;;;;;;4.57;2.50;;;2.00;99.90;;;;;;5075117;28;20483;-61
2023/01/28 04:04:57;;;;;;;3.90;2.50;;;2.00;99.90;;;;;;5074651;28;20123;-61
2023/01/28 04:07:23;;;;;;;4.95;2.72;;;2.00;99.90;;;;;;5075099;28;20048;-62
2023/01/28 04:09:49;;;;;;;4.50;2.67;;;2.00;99.90;;;;;;5073848;28;20047;-62
2023/01/28 04:12:14;;;;;;;7.55;3.28;;;2.00;99.90;;;;;;5074940;28;20076;-62
2023/01/28 04:14:40;;;;;;;4.18;2.38;;;2.00;99.90;;;;;;5074936;28;20135;-62
2023/01/28 04:17:09;;;;;;;5.85;2.63;;;2.00;99.90;;;;;;5074896;28;20526;-61
2023/01/28 04:19:36;;;;;;;3.75;2.38;;;2.00;99.90;;;;;;5074574;28;20053;-62
2023/01/28 04:22:04;;;;;;;5.13;2.50;;;2.00;99.90;;;;;;5074709;28;20040;-61
2023/01/28 04:24:29;;;;;;;3.63;2.35;;;2.00;99.90;;;;;;5074705;28;20036;-62
2023/01/28 04:26:55;;;;;;;4.93;2.42;;;2.00;99.90;;;;;;5073737;28;20441;-62
2023/01/28 04:29:20;;;;;;;3.55;2.15;;;1.90;99.90;;;;;;5074543;28;20033;-62
2023/01/28 04:31:46;;;;;;;3.72;2.22;;;2.00;99.90;;;;;;5074567;28;20037;-62
2023/01/28 04:34:11;;;;;;;4.93;2.40;;;1.90;99.90;;;;;;5074241;28;20036;-62
2023/01/28 04:36:37;;;;;;;4.53;2.30;;;2.00;99.90;;;;;;5074535;28;20572;-62
2023/01/28 04:39:03;;;;;;;4.88;2.35;;;2.00;99.90;;;;;;5074449;28;20139;-61
2023/01/28 04:41:29;;;;;;;3.90;2.58;;;2.00;99.90;;;;;;5073110;28;20036;-62
2023/01/28 04:43:54;;;;;;;3.50;2.42;;;1.90;99.90;;;;;;5074324;28;20036;-62
2023/01/28 04:46:20;;;;;;;6.60;2.80;;;1.90;99.90;;;;;;5074254;28;20476;-62
2023/01/28 04:48:46;;;;;;;4.35;2.70;;;2.00;99.90;;;;;;5073914;28;20033;-62
2023/01/28 04:51:11;;;;;;;4.75;3.05;;;1.90;99.90;;;;;;5073798;28;20501;-61
2023/01/28 04:53:37;;;;;;;4.00;2.70;;;1.90;99.90;;;;;;5072613;28;20083;-61
2023/01/28 04:56:02;;;;;;;4.65;3.05;;;1.90;99.90;;;;;;5073885;28;20048;-62
2023/01/28 04:58:28;;;;;;;4.82;2.63;;;1.90;99.90;;;;;;5074120;28;20158;-62
2023/01/28 05:00:55;;;;;;;4.28;3.13;;;1.90;99.90;;;;;;5073969;28;20040;-61
2023/01/28 05:03:21;;;;;;;4.18;2.80;;;1.90;99.90;;;;;;5073988;28;20036;-62
2023/01/28 05:05:47;;;;;;;5.10;2.65;;;1.90;99.90;;;;;;5073502;28;20459;-61
2023/01/28 05:08:13;;;;;;;5.55;2.95;;;1.90;99.90;;;;;;5073546;28;20079;-61
2023/01/28 05:10:39;;;;;;;4.45;2.38;;;1.80;99.90;;;;;;5073674;28;20037;-62
2023/01/28 05:13:05;;;;;;;4.88;3.05;;;1.80;99.90;;;;;;5073908;28;20041;-62
2023/01/28 05:15:30;;;;;;;3.50;2.53;;;1.80;99.90;;;;;;5073771;28;20039;-62
2023/01/28 05:17:56;;;;;;;4.60;2.47;;;1.80;99.90;;;;;;5073702;28;20052;-62
2023/01/28 05:20:22;;;;;;;5.88;2.50;;;1.80;99.90;;;;;;5073664;28;20403;-61
2023/01/28 05:22:47;;;;;;;6.78;3.40;;;1.80;99.90;;;;;;5073612;28;20044;-62
2023/01/28 05:25:13;;;;;;;7.07;2.30;;;1.80;99.90;;;;;;5073493;28;20036;-62
2023/01/28 05:27:38;;;;;;;6.22;3.33;;;1.80;99.90;;;;;;5073220;28;20037;-61
2023/01/28 05:30:05;;;;;;;3.83;2.53;;;1.80;99.90;;;;;;5072137;28;20098;-61
2023/01/28 05:32:31;;;;;;;5.05;2.67;;;1.80;99.90;;;;;;5073490;28;20082;-62
2023/01/28 05:34:57;;;;;;;5.45;3.58;;;1.70;99.90;;;;;;5073455;28;20486;-62
2023/01/28 05:37:22;;;;;;;5.18;2.70;;;1.70;99.90;;;;;;5073430;28;20044;-61
2023/01/28 05:39:48;;;;;;;4.43;2.00;;;1.80;99.90;;;;;;5073341;28;20032;-61
2023/01/28 05:42:14;;;;;;;5.43;2.97;;;1.80;99.90;;;;;;5073315;28;20540;-61
2023/01/28 05:44:40;;;;;;;3.63;2.35;;;1.70;99.90;;;;;;5073353;28;20075;-62
2023/01/28 05:47:06;;;;;;;3.13;2.50;;;1.70;99.90;;;;;;5073270;28;20403;-62
2023/01/28 05:49:32;;;;;;;5.93;2.83;;;1.70;99.90;;;;;;5071865;28;20040;-61
2023/01/28 05:51:57;;;;;;;3.25;1.90;;;1.70;99.90;;;;;;5071911;28;20037;-62
2023/01/28 05:54:23;;;;;;;5.10;2.70;;;1.70;99.90;;;;;;5073154;28;20071;-61
2023/01/28 05:56:49;;;;;;;3.83;2.28;;;1.70;99.90;;;;;;5072860;28;20102;-61
2023/01/28 05:59:14;;;;;;;6.60;2.40;;;1.70;99.90;;;;;;5073201;28;20036;-61
2023/01/28 06:01:40;;;;;;;3.28;1.92;;;1.70;99.90;;;;;;5072361;28;20111;-61
2023/01/28 06:04:06;;;;;;;5.55;2.38;;;1.70;99.90;;;;;;5072622;28;20060;-62
2023/01/28 06:06:32;;;;;;;3.28;2.28;;;1.70;99.90;;;;;;5073056;28;20056;-61
2023/01/28 06:08:57;;;;;;;3.22;2.08;;;1.70;99.90;;;;;;5072890;28;20036;-64
2023/01/28 06:11:23;;;;;;;4.60;2.45;;;1.70;99.90;;;;;;5073094;28;20037;-63
2023/01/28 06:13:49;;;;;;;4.57;2.65;;;1.70;99.90;;;;;;5071750;28;20041;-61
2023/01/28 06:16:14;;;;;;;3.53;2.42;;;1.70;99.90;;;;;;5072974;28;20506;-61
2023/01/28 06:18:40;;;;;;;4.63;2.63;;;1.60;99.90;;;;;;5072988;28;20045;-62
2023/01/28 06:21:06;;;;;;;3.97;2.53;;;1.70;99.90;;;;;;5072683;28;20044;-61
2023/01/28 06:23:32;;;;;;;4.82;3.13;;;1.60;99.90;;;;;;5072869;28;20063;-61
2023/01/28 06:25:57;;;;;;;4.80;2.58;;;1.60;99.90;;;;;;5072463;28;20040;-62
2023/01/28 06:28:23;;;;;;;5.95;2.50;;;1.60;99.90;;;;;;5072609;28;20056;-61
2023/01/28 06:30:50;;;;;;;3.88;2.67;;;1.60;99.90;;;;;;5072768;28;20041;-61
2023/01/28 06:33:17;;;;;;;4.78;2.65;;;1.60;99.90;;;;;;5071241;28;20143;-63
2023/01/28 06:35:43;;;;;;;3.58;2.58;;;1.60;99.90;;;;;;5071268;28;20093;-64
2023/01/28 06:38:09;;;;;;;4.55;3.08;;;1.60;99.90;;;;;;5072563;28;20044;-61
2023/01/28 06:40:35;;;;;;;5.20;2.95;;;1.60;99.90;;;;;;5072761;28;20049;-61
2023/01/28 06:43:01;;;;;;;5.97;3.08;;;1.60;99.90;;;;;;5072384;28;20078;-61
2023/01/28 06:45:27;;;;;;;4.43;2.60;;;1.60;99.90;;;;;;5072673;28;20133;-61
2023/01/28 06:47:52;;;;;;;4.20;3.10;;;1.60;99.90;;;;;;5071089;28;20127;-64
2023/01/28 06:50:18;;;;;;;4.95;2.70;;;1.60;99.90;;;;;;5070906;28;20068;-61
2023/01/28 06:52:44;;;;;;;7.07;3.67;;;1.60;99.90;;;;;;5072574;28;20047;-64
2023/01/28 06:55:09;;;;;;;5.03;2.92;;;1.60;99.90;;;;;;5071040;28;20505;-63
2023/01/28 06:57:38;;;;;;;5.63;2.78;;;1.50;99.90;;;;;;5072659;28;20041;-63
2023/01/28 07:00:05;;;;;;;5.15;3.03;;;1.50;99.90;;;;;;5072522;28;20043;-63
2023/01/28 07:02:31;;;;;;;5.95;3.03;;;1.60;99.90;;;;;;5072537;28;20044;-62
2023/01/28 07:04:57;;;;;;;6.28;2.80;;;1.50;99.90;;;;;;5072207;28;20109;-63
2023/01/28 07:07:22;;;;;;;4.82;2.85;;;1.50;99.90;;;;;;5072131;28;20513;-63
2023/01/28 07:09:48;;;;;;;5.68;3.17;;;1.60;99.90;;;;;;5072378;28;20040;-63
2023/01/28 07:12:14;;;;;;;7.88;3.22;;;1.50;99.90;;;;;;5073744;28;20040;-63
2023/01/28 07:14:40;;;;;;;7.07;2.97;;;1.60;99.90;;;;;;5076113;28;20127;-62
2023/01/28 07:17:05;;;;;;;5.13;3.33;;;1.60;99.90;;;;;;5075704;28;20072;-63
2023/01/28 07:19:31;;;;;;;5.47;2.83;;;1.60;99.90;;;;;;5075713;28;20105;-62
2023/01/28 07:21:59;;;;;;;6.72;3.25;;;1.60;99.90;;;;;;5075634;28;20048;-63
2023/01/28 07:24:25;;;;;;;5.82;3.67;;;1.60;99.90;;;;;;5074749;28;20072;-63
2023/01/28 07:26:50;;;;;;;7.32;3.22;;;1.60;99.90;;;;;;5075809;28;20036;-63
2023/01/28 07:29:16;;;;;;;6.57;3.20;;;1.50;99.90;;;;;;5075682;28;20421;-63
2023/01/28 07:31:42;;;;;;;4.00;2.97;;;1.50;99.90;;;;;;5075395;28;20052;-62
2023/01/28 07:34:08;;;;;;;4.93;2.85;;;1.50;99.90;;;;;;5075471;28;20035;-63
2023/01/28 07:36:34;;;;;;;5.53;3.25;;;1.50;99.90;;;;;;5074115;28;20036;-63
2023/01/28 07:38:59;;;;;;;5.95;4.10;;;1.50;99.90;;;;;;5075565;28;20441;-63
2023/01/28 07:41:26;;;;;;;4.07;2.53;;;1.50;99.90;;;;;;5075483;28;20029;-63
2023/01/28 07:43:52;;;;;;;5.15;3.20;;;1.50;99.90;;;;;;5074034;28;20048;-63
2023/01/28 07:46:18;;;;;;;5.15;2.95;;;1.50;99.90;;;;;;5074243;28;20050;-64
2023/01/28 07:48:44;;;;;;;4.32;2.47;;;1.50;99.90;;;;;;5075415;28;20041;-62
2023/01/28 07:51:10;;;;;;;5.80;3.00;;;1.40;99.90;;;;;;5075349;28;20068;-62
2023/01/28 07:53:36;;;;;;;4.93;2.85;;;1.30;99.90;;;;;;5075340;28;20087;-63
2023/01/28 07:56:03;;;;;;;5.03;3.40;;;1.20;99.90;;;;;;5075307;28;20068;-64
2023/01/28 07:58:29;;;;;;;3.97;2.90;;;1.20;99.90;;;;;;5075078;28;20040;-62
2023/01/28 08:00:57;;;;;;;4.95;3.00;;;1.10;99.90;;;;;;5075249;28;20040;-62
2023/01/28 08:03:24;;;;;;;6.80;3.30;;;1.10;99.90;;;;;;5073982;28;20123;-62
2023/01/28 08:05:52;;;;;;;4.97;2.88;;;1.10;99.90;;;;;;5074754;28;20059;-63
2023/01/28 08:08:18;;;;;;;8.32;3.88;;;1.00;99.90;;;;;;5074786;28;20052;-62
2023/01/28 08:10:44;;;;;;;6.45;3.58;;;1.00;99.90;;;;;;5074904;28;20479;-62
2023/01/28 08:13:11;;;;;;;8.60;4.32;;;1.10;99.90;;;;;;5074960;28;20407;-63
2023/01/28 08:15:37;;;;;;;5.25;3.38;;;1.10;99.90;;;;;;5074589;28;20036;-63
2023/01/28 08:18:04;;;;;;;5.68;2.97;;;1.10;99.90;;;;;;5073427;28;20036;-64
2023/01/28 08:20:30;;;;;;;4.32;2.83;;;1.10;99.90;;;;;;5074828;28;20041;-63
2023/01/28 08:23:17;;;;;;;6.70;3.60;;;1.10;99.90;;;;;;5074527;28;20040;-64
2023/01/28 08:25:43;;;;;;;8.23;3.35;;;1.20;99.90;;;;;;5073468;28;20123;-63
2023/01/28 08:28:10;;;;;;;4.95;3.13;;;1.20;99.90;;;;;;5074291;28;20048;-64
2023/01/28 08:30:37;;;;;;;6.13;3.58;;;1.20;99.90;;;;;;5074430;28;20040;-63
2023/01/28 08:33:04;;;;;;;9.63;4.80;;;1.30;99.90;;;;;;5074414;28;20079;-63
2023/01/28 08:35:31;;;;;;;8.23;4.03;;;1.30;99.90;;;;;;5073070;28;20036;-64
2023/01/28 08:37:59;;;;;;;4.50;3.10;;;1.30;99.90;;;;;;5074264;28;20086;-64
2023/01/28 08:40:25;;;;;;;4.82;3.35;;;1.30;99.90;;;;;;5072636;28;20052;-64
2023/01/28 08:42:52;;;;;;;6.97;4.00;;;1.30;99.90;;;;;;5074209;28;20555;-63
2023/01/28 08:45:21;;;;;;;7.03;3.45;;;1.40;99.90;;;;;;5072871;28;20044;-63
2023/01/28 08:47:58;;;;;;;5.93;3.75;;;1.50;99.90;;;;;;5074073;28;20388;-63
2023/01/28 08:50:27;;;;;;;5.72;3.35;;;1.60;99.90;;;;;;5074015;28;20399;-64
2023/01/28 08:52:57;;;;;;;5.20;3.17;;;1.60;99.90;;;;;;5072526;28;20160;-64
2023/01/28 08:55:24;;;;;;;6.95;3.58;;;1.60;99.90;;;;;;5073998;28;20085;-63
2023/01/28 08:57:49;;;;;;;6.90;3.58;;;1.60;99.90;;;;;;5072692;28;20510;-63
2023/01/28 09:00:15;;;;;;;7.18;3.53;;;1.60;99.90;;;;;;5073759;28;20040;-63
2023/01/28 09:02:41;;;;;;;7.68;3.80;;;1.60;99.90;;;;;;5073818;28;20036;-63
2023/01/28 09:05:07;;;;;;;9.02;3.60;;;1.60;99.90;;;;;;5073484;28;20415;-63
2023/01/28 09:07:36;;;;;;;6.82;3.80;;;1.70;99.90;;;;;;5073951;28;20055;-63
2023/01/28 09:10:03;;;;;;;5.20;3.17;;;1.70;99.90;;;;;;5072158;28;20033;-63
2023/01/28 09:12:29;;;;;;;5.03;2.80;;;1.80;99.90;;;;;;5073864;28;20433;-64
2023/01/28 09:14:55;;;;;;;5.30;3.72;;;1.80;99.90;;;;;;5072129;28;20098;-63
2023/01/28 09:17:21;;;;;;;6.70;3.42;;;1.80;99.90;;;;;;5072477;28;20048;-63
2023/01/28 09:19:46;;;;;;;7.40;4.13;;;1.80;99.90;;;;;;5073576;28;20074;-64
2023/01/28 09:22:12;;;;;;;6.70;3.03;;;1.90;99.90;;;;;;5073509;28;20487;-63
2023/01/28 09:24:37;;;;;;;7.03;3.63;;;2.00;99.90;;;;;;5073133;28;20037;-63
2023/01/28 09:27:03;;;;;;;5.20;3.30;;;1.90;99.90;;;;;;5073395;28;20033;-63
2023/01/28 09:29:29;;;;;;;7.32;3.55;;;1.90;99.90;;;;;;5073234;28;20036;-63
2023/01/28 09:31:54;;;;;;;7.05;3.72;;;1.90;99.90;;;;;;5073418;28;20036;-63
2023/01/28 09:34:20;;;;;;;5.00;2.70;;;1.90;99.90;;;;;;5073290;28;20047;-63
2023/01/28 09:36:45;;;;;;;5.97;3.13;;;1.90;99.90;;;;;;5072143;28;20391;-63
2023/01/28 09:39:11;;;;;;;10.07;3.67;;;2.20;99.90;;;;;;5073344;28;20241;-63
2023/01/28 09:41:52;;;;;;;5.55;3.10;;;1.90;99.90;;;;;;5073345;28;20043;-63
2023/01/28 09:44:42;;;;;;;7.05;2.65;;;1.90;99.90;;;;;;5073345;28;20155;-63
2023/01/28 09:47:17;;;;;;;5.88;3.10;;;1.90;99.90;;;;;;5073271;28;20079;-62
2023/01/28 09:49:47;;;;;;;4.80;2.65;;;1.90;99.90;;;;;;5072810;28;20043;-63
2023/01/28 09:52:16;;;;;;;4.20;2.85;;;2.00;99.90;;;;;;5072843;28;20041;-62
2023/01/28 09:54:55;;;;;;;4.88;2.83;;;2.10;99.90;;;;;;5073093;28;20046;-62
2023/01/28 09:57:36;;;;;;;4.93;3.15;;;2.20;99.90;;;;;;5073172;28;20078;-63
2023/01/28 10:00:08;;;;;;;4.68;2.72;;;2.40;99.90;;;;;;5071873;28;20055;-64
2023/01/28 10:02:45;;;;;;;10.75;3.42;;;2.40;99.90;;;;;;5073083;28;20161;-63
2023/01/28 10:05:45;;;;;;;5.03;2.63;;;2.50;99.90;;;;;;5072621;28;20102;-63
2023/01/28 10:08:49;;;;;;;5.78;2.83;;;2.60;99.90;;;;;;5072981;28;20123;-63
2023/01/28 10:11:46;;;;;;;5.53;2.95;;;2.70;99.90;;;;;;5071346;28;20127;-63
2023/01/28 10:14:22;;;;;;;5.95;4.07;;;2.90;99.90;;;;;;5072844;28;20076;-64
2023/01/28 10:17:06;;;;;;;4.30;2.53;;;3.00;99.90;;;;;;5072941;28;20372;-63
2023/01/28 10:19:44;;;;;;;4.80;2.58;;;3.10;99.90;;;;;;5072587;28;20041;-63
2023/01/28 10:22:24;;;;;;;5.00;2.70;;;3.10;99.90;;;;;;5072587;28;20051;-64
2023/01/28 10:24:57;;;;;;;3.77;1.97;;;3.30;99.90;;;;;;5072607;28;20047;-64
2023/01/28 10:27:26;;;;;;;4.72;2.42;;;3.40;99.90;;;;;;5072866;28;20285;-64
2023/01/28 10:29:52;;;;;;;4.00;2.53;;;3.60;99.90;;;;;;5072790;28;20064;-64
2023/01/28 10:32:40;;;;;;;6.40;2.22;;;3.60;99.90;;;;;;5071473;28;20075;-63
2023/01/28 10:35:06;;;;;;;6.53;3.10;;;3.70;99.90;;;;;;5071557;28;20075;-63
2023/01/28 10:37:38;;;;;;;3.88;2.33;;;3.70;99.90;;;;;;5071300;28;20456;-63
2023/01/28 10:40:04;;;;;;;4.05;2.17;;;3.70;99.90;;;;;;5072314;28;20055;-63
2023/01/28 10:42:32;;;;;;;4.88;2.92;;;3.70;99.90;;;;;;5072654;28;20048;-63
2023/01/28 10:45:19;;;;;;;5.20;2.65;;;3.70;99.90;;;;;;5072270;28;20090;-64
2023/01/28 10:47:52;;;;;;;4.88;2.50;;;3.60;99.90;;;;;;5074842;28;20082;-63
2023/01/28 10:50:25;;;;;;;4.75;2.75;;;3.50;99.90;;;;;;5076274;28;20419;-63
2023/01/28 10:53:02;;;;;;;6.60;2.72;;;3.40;99.90;;;;;;5076030;28;20123;-63
2023/01/28 10:55:33;;;;;;;5.05;2.42;;;3.40;99.90;;;;;;5074674;28;20032;-63
2023/01/28 10:57:58;;;;;;;4.50;2.83;;;3.40;99.90;;;;;;5076227;28;20040;-63
2023/01/28 11:00:27;;;;;;;3.70;2.10;;;3.30;99.90;;;;;;5076183;28;20040;-63
2023/01/28 11:02:53;;;;;;;5.18;2.40;;;3.30;99.90;;;;;;5076175;28;20094;-64
2023/01/28 11:05:25;;;;;;;6.35;2.60;;;3.30;99.90;;;;;;5075596;28;20415;-64
2023/01/28 11:08:14;;;;;;;4.35;2.45;;;3.30;99.90;;;;;;5076104;28;20123;-63
2023/01/28 11:10:41;;;;;;;4.03;2.60;;;3.40;99.90;;;;;;5075959;28;20047;-63
2023/01/28 11:13:17;;;;;;;7.75;3.70;;;3.60;99.90;;;;;;5075605;28;20048;-63
2023/01/28 11:15:48;;;;;;;8.95;3.70;;;3.70;99.90;;;;;;5075946;28;20043;-63
2023/01/28 11:18:25;;;;;;;5.82;3.10;;;3.80;99.90;;;;;;5074320;28;20044;-63
2023/01/28 11:21:03;;;;;;;3.22;2.25;;;3.90;99.90;;;;;;5057640;28;20384;-62
2023/01/28 11:23:33;;;;;;;4.55;2.38;;;4.00;99.90;;;;;;5074577;28;20037;-63
2023/01/28 11:26:21;;;;;;;5.00;2.58;;;4.20;99.90;;;;;;5074203;28;20052;-63
2023/01/28 11:28:47;;;;;;;4.97;2.75;;;4.40;99.90;;;;;;5075695;28;20040;-62
2023/01/28 11:31:16;;;;;;;4.47;1.83;;;4.50;99.90;;;;;;5075518;28;20045;-63
2023/01/28 11:34:03;;;;;;;4.55;1.83;;;4.60;99.90;;;;;;5075618;28;20036;-63
2023/01/28 11:36:31;;;;;;;2.42;1.50;;;4.80;99.90;;;;;;5075594;28;20085;-63
2023/01/28 11:38:59;;;;;;;2.47;1.73;;;4.90;99.90;;;;;;5075299;28;20465;-63
2023/01/28 11:41:32;;;;;;;2.92;1.90;;;5.00;99.90;;;;;;5075508;28;20391;-63
2023/01/28 11:43:59;;;;;;;2.40;1.60;;;5.00;99.90;;;;;;5075405;28;20040;-63
2023/01/28 11:47:00;;;;;;;3.65;1.95;;;4.90;99.90;;;;;;5075309;28;20094;-63
2023/01/28 11:50:03;;;;;;;2.90;1.73;;;4.90;99.90;;;;;;5071769;28;20052;-63
2023/01/28 11:53:07;;;;;;;4.55;2.30;;;4.80;99.90;;;;;;5075061;28;20041;-63
2023/01/28 11:56:09;;;;;;;5.00;2.13;;;4.80;99.90;;;;;;5051469;28;20384;-63
2023/01/28 11:58:58;;;;;;;;;;;4.80;99.90;;;;;;5074416;28;20043;-64
2023/01/28 12:01:48;;;;;;;5.82;1.85;;;4.90;99.90;;;;;;5074922;28;19916;-64
2023/01/28 12:04:48;;;;;;;4.65;2.30;;;4.90;99.90;;;;;;5074814;28;20047;-63
2023/01/28 12:07:22;;;;;;;4.30;2.65;;;4.90;99.90;;;;;;5074791;28;20053;-63
2023/01/28 12:10:01;;;;;;;4.90;2.85;;;5.00;99.90;;;;;;5074904;28;20032;-63
2023/01/28 12:12:51;;;;;;;5.30;2.30;;;5.10;99.90;;;;;;5074889;28;20128;-64
2023/01/28 12:15:40;;;;;;;3.80;2.30;;;5.20;99.90;;;;;;5073714;28;20148;-63
2023/01/28 12:18:28;;;;;;;7.63;2.78;;;5.10;99.90;;;;;;5074864;28;20636;-63
2023/01/28 12:21:24;;;;;;;7.32;2.90;;;5.10;99.90;;;;;;5073294;28;20052;-63
2023/01/28 12:24:19;;;;;;;3.50;2.63;;;5.10;99.90;;;;;;5063681;28;20387;-64
2023/01/28 12:26:50;;;;;;;4.22;2.17;;;5.20;96.50;;;;;;5044597;28;20040;-64
2023/01/28 12:29:24;;;;;;;5.43;2.58;;;5.20;1.00;;;;;;5074576;28;20113;-63
2023/01/28 12:32:08;;;;;;;6.03;2.72;;;5.20;11.90;;;;;;5074603;28;20037;-63
2023/01/28 12:34:57;;;;;;;4.00;2.72;;;5.10;1.00;;;;;;5074335;28;20052;-62
2023/01/28 12:37:52;;;;;;;5.40;2.90;;;4.90;1.00;;;;;;5074185;28;20032;-64
2023/01/28 12:40:37;;;;;;;6.65;2.97;;;4.80;1.00;;;;;;5074475;28;20049;-63
2023/01/28 12:43:12;;;;;;;6.93;2.80;;;4.70;1.00;;;;;;5074283;28;20153;-63
2023/01/28 12:45:40;;;;;;;4.15;2.90;;;4.60;1.00;;;;;;5073964;28;20052;-62
2023/01/28 12:48:16;;;;;;;4.72;2.42;;;4.60;1.00;;;;;;5073022;28;20055;-63
2023/01/28 12:50:50;;;;;;;5.68;2.70;;;4.90;4.30;;;;;;5074179;28;20045;-63
2023/01/28 12:53:26;;;;;;;5.00;2.97;;;5.10;1.00;;;;;;5074205;28;20025;-63
2023/01/28 12:56:07;;;;;;;3.92;2.47;;;5.20;1.00;;;;;;5074089;28;20032;-63
2023/01/28 12:58:48;;;;;;;4.68;2.78;;;5.20;1.00;;;;;;5072509;28;20044;-63
2023/01/28 13:01:17;;;;;;;;;;;5.00;1.00;;;;;;5074403;28;20040;-63
2023/01/28 13:03:55;;;;;;;4.07;2.10;;;5.00;1.00;;;;;;5073955;28;20002;-62
2023/01/28 13:06:34;;;;;;;8.10;3.30;;;5.00;1.00;;;;;;5073892;28;20041;-63
2023/01/28 13:09:22;;;;;;;4.32;3.05;;;5.10;1.00;;;;;;5073516;28;20045;-63
2023/01/28 13:11:51;;;;;;;7.35;3.10;;;5.20;1.00;;;;;;5073818;28;20044;-63
2023/01/28 13:14:22;;;;;;;4.55;3.05;;;5.40;1.00;;;;;;5073839;28;20514;-63
2023/01/28 13:16:47;;;;;;;3.47;2.42;;;5.50;1.00;;;;;;5073706;28;20036;-64
2023/01/28 13:19:21;;;;;;;5.50;2.88;;;5.60;1.00;;;;;;5073704;28;20373;-63
2023/01/28 13:21:48;;;;;;;4.00;2.40;;;5.70;1.00;;;;;;5072349;28;20548;-64
2023/01/28 13:24:14;;;;;;;5.88;3.08;;;5.70;1.00;;;;;;5073351;28;20037;-63
2023/01/28 13:26:48;;;;;;;5.72;2.80;;;5.70;1.00;;;;;;5073581;28;20056;-62
2023/01/28 13:29:14;;;;;;;4.47;2.47;;;5.60;1.00;;;;;;5073485;28;20426;-63
2023/01/28 13:31:42;;;;;;;4.80;2.20;;;5.40;1.00;;;;;;5073438;28;20102;-63
2023/01/28 13:34:35;;;;;;;7.35;2.55;;;5.30;1.00;;;;;;5073450;28;20079;-63
2023/01/28 13:37:29;;;;;;;5.38;2.90;;;5.20;1.00;;;;;;5073332;28;20139;-63
2023/01/28 13:40:08;;;;;;;4.18;2.20;;;5.20;1.00;;;;;;5073326;28;20044;-63
2023/01/28 13:42:34;;;;;;;3.25;2.15;;;5.30;1.00;;;;;;5073241;28;20098;-63
2023/01/28 13:45:15;;;;;;;4.88;2.45;;;5.30;1.00;;;;;;5071722;28;20032;-64
2023/01/28 13:47:44;;;;;;;7.20;2.35;;;5.40;1.00;;;;;;5071978;28;20053;-64